sensor_id;sensor_type;location;lat;lon;timestamp;P1;durP1;ratioP1;P2;durP2;ratioP2
5606;SDS011;2825;53.116;9.392;2022-08-23T00:01:57;15.13;;;2.67;;
5606;SDS011;2825;53.116;9.392;2022-08-23T00:04:31;15.37;;;2.50;;
5606;SDS011;2825;53.116;9.392;2022-08-23T00:07:00;14.67;;;2.73;;
5606;SDS011;2825;53.116;9.392;2022-08-23T00:09:27;15.17;;;2.23;;
5606;SDS011;2825;53.116;9.392;2022-08-23T00:14:38;13.30;;;2.40;;
5606;SDS011;2825;53.116;9.392;2022-08-23T00:17:06;21.47;;;2.40;;
5606;SDS011;2825;53.116;9.392;2022-08-23T00:19:33;19.50;;;2.60;;
5606;SDS011;2825;53.116;9.392;2022-08-23T00:21:58;18.77;;;2.90;;
5606;SDS011;2825;53.116;9.392;2022-08-23T00:24:25;13.43;;;2.50;;
5606;SDS011;2825;53.116;9.392;2022-08-23T00:27:12;14.83;;;2.83;;
5606;SDS011;2825;53.116;9.392;2022-08-23T00:32:10;14.33;;;2.40;;
5606;SDS011;2825;53.116;9.392;2022-08-23T00:34:39;15.10;;;2.50;;
5606;SDS011;2825;53.116;9.392;2022-08-23T00:37:05;17.83;;;2.67;;
5606;SDS011;2825;53.116;9.392;2022-08-23T00:39:31;14.33;;;2.50;;
5606;SDS011;2825;53.116;9.392;2022-08-23T00:41:58;14.80;;;2.33;;
5606;SDS011;2825;53.116;9.392;2022-08-23T00:44:48;14.40;;;2.40;;
5606;SDS011;2825;53.116;9.392;2022-08-23T00:47:32;15.00;;;2.97;;
5606;SDS011;2825;53.116;9.392;2022-08-23T00:53:06;17.70;;;3.10;;
5606;SDS011;2825;53.116;9.392;2022-08-23T00:55:37;18.10;;;2.60;;
5606;SDS011;2825;53.116;9.392;2022-08-23T00:58:07;14.10;;;2.73;;
5606;SDS011;2825;53.116;9.392;2022-08-23T01:00:33;17.73;;;3.10;;
5606;SDS011;2825;53.116;9.392;2022-08-23T01:03:01;15.00;;;3.10;;
5606;SDS011;2825;53.116;9.392;2022-08-23T01:05:35;16.30;;;2.77;;
5606;SDS011;2825;53.116;9.392;2022-08-23T01:08:11;14.87;;;2.90;;
5606;SDS011;2825;53.116;9.392;2022-08-23T01:10:46;18.53;;;2.80;;
5606;SDS011;2825;53.116;9.392;2022-08-23T01:13:17;14.60;;;3.13;;
5606;SDS011;2825;53.116;9.392;2022-08-23T01:16:02;15.57;;;2.97;;
5606;SDS011;2825;53.116;9.392;2022-08-23T01:18:34;14.20;;;3.33;;
5606;SDS011;2825;53.116;9.392;2022-08-23T01:21:08;16.17;;;3.07;;
5606;SDS011;2825;53.116;9.392;2022-08-23T01:26:16;17.00;;;3.33;;
5606;SDS011;2825;53.116;9.392;2022-08-23T01:28:43;14.10;;;2.83;;
5606;SDS011;2825;53.116;9.392;2022-08-23T01:31:09;13.73;;;2.47;;
5606;SDS011;2825;53.116;9.392;2022-08-23T01:33:37;16.07;;;3.60;;
5606;SDS011;2825;53.116;9.392;2022-08-23T01:36:05;13.97;;;2.90;;
5606;SDS011;2825;53.116;9.392;2022-08-23T01:38:33;14.43;;;2.43;;
5606;SDS011;2825;53.116;9.392;2022-08-23T01:40:59;15.57;;;3.00;;
5606;SDS011;2825;53.116;9.392;2022-08-23T01:43:25;15.60;;;3.23;;
5606;SDS011;2825;53.116;9.392;2022-08-23T01:45:51;17.27;;;3.67;;
5606;SDS011;2825;53.116;9.392;2022-08-23T01:48:18;14.90;;;3.37;;
5606;SDS011;2825;53.116;9.392;2022-08-23T01:50:45;15.63;;;3.50;;
5606;SDS011;2825;53.116;9.392;2022-08-23T01:53:11;14.10;;;3.17;;
5606;SDS011;2825;53.116;9.392;2022-08-23T01:55:37;14.53;;;3.50;;
5606;SDS011;2825;53.116;9.392;2022-08-23T01:58:04;14.80;;;3.03;;
5606;SDS011;2825;53.116;9.392;2022-08-23T02:00:33;19.00;;;3.17;;
5606;SDS011;2825;53.116;9.392;2022-08-23T02:03:04;13.90;;;3.07;;
5606;SDS011;2825;53.116;9.392;2022-08-23T02:05:30;16.37;;;3.70;;
5606;SDS011;2825;53.116;9.392;2022-08-23T02:07:56;16.37;;;3.30;;
5606;SDS011;2825;53.116;9.392;2022-08-23T02:10:42;14.90;;;3.13;;
5606;SDS011;2825;53.116;9.392;2022-08-23T02:13:08;15.63;;;2.93;;
5606;SDS011;2825;53.116;9.392;2022-08-23T02:15:34;14.13;;;2.87;;
5606;SDS011;2825;53.116;9.392;2022-08-23T02:17:59;13.83;;;2.70;;
5606;SDS011;2825;53.116;9.392;2022-08-23T02:20:26;15.97;;;3.80;;
5606;SDS011;2825;53.116;9.392;2022-08-23T02:22:51;23.67;;;3.13;;
5606;SDS011;2825;53.116;9.392;2022-08-23T02:25:17;13.70;;;2.90;;
5606;SDS011;2825;53.116;9.392;2022-08-23T02:27:43;16.13;;;3.20;;
5606;SDS011;2825;53.116;9.392;2022-08-23T02:30:09;16.47;;;3.03;;
5606;SDS011;2825;53.116;9.392;2022-08-23T02:32:35;18.60;;;3.80;;
5606;SDS011;2825;53.116;9.392;2022-08-23T02:35:01;14.73;;;3.23;;
5606;SDS011;2825;53.116;9.392;2022-08-23T02:37:26;17.97;;;3.10;;
5606;SDS011;2825;53.116;9.392;2022-08-23T02:39:52;15.33;;;3.00;;
5606;SDS011;2825;53.116;9.392;2022-08-23T02:42:18;15.33;;;3.43;;
5606;SDS011;2825;53.116;9.392;2022-08-23T02:44:43;15.00;;;3.17;;
5606;SDS011;2825;53.116;9.392;2022-08-23T02:47:09;15.60;;;2.87;;
5606;SDS011;2825;53.116;9.392;2022-08-23T02:49:36;13.77;;;2.87;;
5606;SDS011;2825;53.116;9.392;2022-08-23T02:52:03;15.10;;;3.20;;
5606;SDS011;2825;53.116;9.392;2022-08-23T02:54:30;13.97;;;2.77;;
5606;SDS011;2825;53.116;9.392;2022-08-23T02:56:56;16.23;;;3.33;;
5606;SDS011;2825;53.116;9.392;2022-08-23T02:59:22;16.90;;;4.00;;
5606;SDS011;2825;53.116;9.392;2022-08-23T03:01:48;18.17;;;3.27;;
5606;SDS011;2825;53.116;9.392;2022-08-23T03:04:13;15.13;;;3.60;;
5606;SDS011;2825;53.116;9.392;2022-08-23T03:06:39;14.70;;;3.10;;
5606;SDS011;2825;53.116;9.392;2022-08-23T03:09:05;15.83;;;3.10;;
5606;SDS011;2825;53.116;9.392;2022-08-23T03:11:32;15.40;;;3.10;;
5606;SDS011;2825;53.116;9.392;2022-08-23T03:13:58;15.17;;;3.27;;
5606;SDS011;2825;53.116;9.392;2022-08-23T03:16:25;14.67;;;2.93;;
5606;SDS011;2825;53.116;9.392;2022-08-23T03:18:51;14.17;;;2.80;;
5606;SDS011;2825;53.116;9.392;2022-08-23T03:21:17;16.80;;;3.77;;
5606;SDS011;2825;53.116;9.392;2022-08-23T03:23:44;14.67;;;3.27;;
5606;SDS011;2825;53.116;9.392;2022-08-23T03:26:11;17.90;;;3.47;;
5606;SDS011;2825;53.116;9.392;2022-08-23T03:28:39;17.10;;;3.80;;
5606;SDS011;2825;53.116;9.392;2022-08-23T03:31:07;17.33;;;4.10;;
5606;SDS011;2825;53.116;9.392;2022-08-23T03:33:33;14.47;;;3.20;;
5606;SDS011;2825;53.116;9.392;2022-08-23T03:36:00;16.67;;;2.80;;
5606;SDS011;2825;53.116;9.392;2022-08-23T03:38:27;19.67;;;3.50;;
5606;SDS011;2825;53.116;9.392;2022-08-23T03:40:53;15.73;;;3.80;;
5606;SDS011;2825;53.116;9.392;2022-08-23T03:43:19;15.37;;;3.67;;
5606;SDS011;2825;53.116;9.392;2022-08-23T03:45:46;18.97;;;5.50;;
5606;SDS011;2825;53.116;9.392;2022-08-23T03:48:12;19.27;;;4.37;;
5606;SDS011;2825;53.116;9.392;2022-08-23T03:50:37;18.17;;;3.70;;
5606;SDS011;2825;53.116;9.392;2022-08-23T03:53:03;16.43;;;3.80;;
5606;SDS011;2825;53.116;9.392;2022-08-23T03:55:29;17.43;;;4.73;;
5606;SDS011;2825;53.116;9.392;2022-08-23T03:57:55;18.97;;;4.60;;
5606;SDS011;2825;53.116;9.392;2022-08-23T04:00:21;15.80;;;4.40;;
5606;SDS011;2825;53.116;9.392;2022-08-23T04:02:47;19.40;;;4.50;;
5606;SDS011;2825;53.116;9.392;2022-08-23T04:05:13;17.40;;;4.67;;
5606;SDS011;2825;53.116;9.392;2022-08-23T04:07:39;16.60;;;5.53;;
5606;SDS011;2825;53.116;9.392;2022-08-23T04:10:05;18.73;;;5.83;;
5606;SDS011;2825;53.116;9.392;2022-08-23T04:12:33;17.67;;;6.40;;
5606;SDS011;2825;53.116;9.392;2022-08-23T04:14:59;21.30;;;6.40;;
5606;SDS011;2825;53.116;9.392;2022-08-23T04:17:26;20.90;;;6.60;;
5606;SDS011;2825;53.116;9.392;2022-08-23T04:19:53;17.43;;;6.33;;
5606;SDS011;2825;53.116;9.392;2022-08-23T04:22:19;20.60;;;7.73;;
5606;SDS011;2825;53.116;9.392;2022-08-23T04:24:45;19.00;;;6.77;;
5606;SDS011;2825;53.116;9.392;2022-08-23T04:27:12;18.70;;;6.23;;
5606;SDS011;2825;53.116;9.392;2022-08-23T04:29:38;22.03;;;7.13;;
5606;SDS011;2825;53.116;9.392;2022-08-23T04:32:05;23.00;;;7.60;;
5606;SDS011;2825;53.116;9.392;2022-08-23T04:34:33;20.43;;;7.53;;
5606;SDS011;2825;53.116;9.392;2022-08-23T04:36:59;26.20;;;8.10;;
5606;SDS011;2825;53.116;9.392;2022-08-23T04:39:26;21.70;;;7.70;;
5606;SDS011;2825;53.116;9.392;2022-08-23T04:41:52;20.00;;;7.63;;
5606;SDS011;2825;53.116;9.392;2022-08-23T04:44:36;26.50;;;8.10;;
5606;SDS011;2825;53.116;9.392;2022-08-23T04:47:02;18.90;;;6.40;;
5606;SDS011;2825;53.116;9.392;2022-08-23T04:49:28;21.53;;;7.10;;
5606;SDS011;2825;53.116;9.392;2022-08-23T04:51:54;21.37;;;7.30;;
5606;SDS011;2825;53.116;9.392;2022-08-23T04:54:20;20.27;;;6.67;;
5606;SDS011;2825;53.116;9.392;2022-08-23T04:56:46;18.67;;;5.73;;
5606;SDS011;2825;53.116;9.392;2022-08-23T04:59:12;24.33;;;6.70;;
5606;SDS011;2825;53.116;9.392;2022-08-23T05:01:38;19.10;;;6.60;;
5606;SDS011;2825;53.116;9.392;2022-08-23T05:04:06;21.67;;;8.20;;
5606;SDS011;2825;53.116;9.392;2022-08-23T05:06:32;19.70;;;6.43;;
5606;SDS011;2825;53.116;9.392;2022-08-23T05:08:58;17.77;;;5.50;;
5606;SDS011;2825;53.116;9.392;2022-08-23T05:11:25;17.63;;;5.07;;
5606;SDS011;2825;53.116;9.392;2022-08-23T05:13:53;16.50;;;5.47;;
5606;SDS011;2825;53.116;9.392;2022-08-23T05:16:19;19.27;;;5.70;;
5606;SDS011;2825;53.116;9.392;2022-08-23T05:18:45;25.80;;;6.30;;
5606;SDS011;2825;53.116;9.392;2022-08-23T05:21:15;17.70;;;5.60;;
5606;SDS011;2825;53.116;9.392;2022-08-23T05:23:43;18.40;;;6.20;;
5606;SDS011;2825;53.116;9.392;2022-08-23T05:26:09;20.40;;;6.67;;
5606;SDS011;2825;53.116;9.392;2022-08-23T05:28:36;17.97;;;5.10;;
5606;SDS011;2825;53.116;9.392;2022-08-23T05:31:06;19.20;;;5.80;;
5606;SDS011;2825;53.116;9.392;2022-08-23T05:33:37;17.70;;;5.60;;
5606;SDS011;2825;53.116;9.392;2022-08-23T05:36:05;21.00;;;5.90;;
5606;SDS011;2825;53.116;9.392;2022-08-23T05:38:31;26.23;;;7.27;;
5606;SDS011;2825;53.116;9.392;2022-08-23T05:40:58;16.00;;;4.97;;
5606;SDS011;2825;53.116;9.392;2022-08-23T05:43:26;18.13;;;4.50;;
5606;SDS011;2825;53.116;9.392;2022-08-23T05:45:59;18.53;;;5.13;;
5606;SDS011;2825;53.116;9.392;2022-08-23T05:48:37;19.40;;;6.00;;
5606;SDS011;2825;53.116;9.392;2022-08-23T05:51:11;16.70;;;4.80;;
5606;SDS011;2825;53.116;9.392;2022-08-23T05:53:38;22.10;;;5.27;;
5606;SDS011;2825;53.116;9.392;2022-08-23T05:56:12;20.33;;;5.20;;
5606;SDS011;2825;53.116;9.392;2022-08-23T05:58:42;19.40;;;5.87;;
5606;SDS011;2825;53.116;9.392;2022-08-23T06:01:08;17.47;;;4.97;;
5606;SDS011;2825;53.116;9.392;2022-08-23T06:03:34;19.50;;;4.60;;
5606;SDS011;2825;53.116;9.392;2022-08-23T06:06:00;18.03;;;5.00;;
5606;SDS011;2825;53.116;9.392;2022-08-23T06:08:27;19.80;;;5.63;;
5606;SDS011;2825;53.116;9.392;2022-08-23T06:11:03;23.93;;;5.27;;
5606;SDS011;2825;53.116;9.392;2022-08-23T06:13:46;17.13;;;5.13;;
5606;SDS011;2825;53.116;9.392;2022-08-23T06:16:15;16.10;;;4.67;;
5606;SDS011;2825;53.116;9.392;2022-08-23T06:18:43;20.77;;;4.93;;
5606;SDS011;2825;53.116;9.392;2022-08-23T06:21:10;18.07;;;4.93;;
5606;SDS011;2825;53.116;9.392;2022-08-23T06:23:38;21.73;;;7.00;;
5606;SDS011;2825;53.116;9.392;2022-08-23T06:26:09;18.53;;;5.50;;
5606;SDS011;2825;53.116;9.392;2022-08-23T06:28:35;19.83;;;4.87;;
5606;SDS011;2825;53.116;9.392;2022-08-23T06:31:01;16.90;;;4.97;;
5606;SDS011;2825;53.116;9.392;2022-08-23T06:33:26;20.20;;;5.40;;
5606;SDS011;2825;53.116;9.392;2022-08-23T06:36:05;21.07;;;5.27;;
5606;SDS011;2825;53.116;9.392;2022-08-23T06:38:33;16.70;;;4.70;;
5606;SDS011;2825;53.116;9.392;2022-08-23T06:41:00;16.07;;;4.33;;
5606;SDS011;2825;53.116;9.392;2022-08-23T06:43:27;17.27;;;4.97;;
5606;SDS011;2825;53.116;9.392;2022-08-23T06:45:54;20.33;;;5.93;;
5606;SDS011;2825;53.116;9.392;2022-08-23T06:48:30;16.33;;;4.77;;
5606;SDS011;2825;53.116;9.392;2022-08-23T06:50:56;15.50;;;4.10;;
5606;SDS011;2825;53.116;9.392;2022-08-23T06:53:21;14.67;;;4.13;;
5606;SDS011;2825;53.116;9.392;2022-08-23T06:55:47;18.20;;;3.70;;
5606;SDS011;2825;53.116;9.392;2022-08-23T06:58:13;16.80;;;4.10;;
5606;SDS011;2825;53.116;9.392;2022-08-23T07:00:39;14.70;;;3.70;;
5606;SDS011;2825;53.116;9.392;2022-08-23T07:03:05;15.47;;;3.90;;
5606;SDS011;2825;53.116;9.392;2022-08-23T07:05:31;17.50;;;3.60;;
5606;SDS011;2825;53.116;9.392;2022-08-23T07:07:57;19.70;;;4.60;;
5606;SDS011;2825;53.116;9.392;2022-08-23T07:10:23;17.10;;;4.23;;
5606;SDS011;2825;53.116;9.392;2022-08-23T07:12:48;19.27;;;4.87;;
5606;SDS011;2825;53.116;9.392;2022-08-23T07:15:14;17.53;;;3.60;;
5606;SDS011;2825;53.116;9.392;2022-08-23T07:17:40;14.03;;;3.27;;
5606;SDS011;2825;53.116;9.392;2022-08-23T07:20:06;15.43;;;3.33;;
5606;SDS011;2825;53.116;9.392;2022-08-23T07:22:32;14.90;;;3.33;;
5606;SDS011;2825;53.116;9.392;2022-08-23T07:24:58;15.40;;;3.23;;
5606;SDS011;2825;53.116;9.392;2022-08-23T07:27:24;18.20;;;3.30;;
5606;SDS011;2825;53.116;9.392;2022-08-23T07:29:49;16.60;;;5.10;;
5606;SDS011;2825;53.116;9.392;2022-08-23T07:32:15;15.17;;;3.80;;
5606;SDS011;2825;53.116;9.392;2022-08-23T07:34:41;16.10;;;3.10;;
5606;SDS011;2825;53.116;9.392;2022-08-23T07:37:07;15.40;;;3.80;;
5606;SDS011;2825;53.116;9.392;2022-08-23T07:39:33;15.70;;;3.20;;
5606;SDS011;2825;53.116;9.392;2022-08-23T07:42:00;15.60;;;2.93;;
5606;SDS011;2825;53.116;9.392;2022-08-23T07:44:28;13.60;;;2.87;;
5606;SDS011;2825;53.116;9.392;2022-08-23T07:46:54;19.00;;;3.40;;
5606;SDS011;2825;53.116;9.392;2022-08-23T07:49:20;14.07;;;3.13;;
5606;SDS011;2825;53.116;9.392;2022-08-23T07:51:48;15.20;;;3.80;;
5606;SDS011;2825;53.116;9.392;2022-08-23T07:54:15;15.53;;;2.87;;
5606;SDS011;2825;53.116;9.392;2022-08-23T07:56:43;14.07;;;2.70;;
5606;SDS011;2825;53.116;9.392;2022-08-23T07:59:10;14.60;;;2.57;;
5606;SDS011;2825;53.116;9.392;2022-08-23T08:01:36;15.00;;;3.10;;
5606;SDS011;2825;53.116;9.392;2022-08-23T08:04:04;13.60;;;2.20;;
5606;SDS011;2825;53.116;9.392;2022-08-23T08:06:38;15.83;;;2.30;;
5606;SDS011;2825;53.116;9.392;2022-08-23T08:09:10;14.70;;;2.53;;
5606;SDS011;2825;53.116;9.392;2022-08-23T08:11:36;15.50;;;2.70;;
5606;SDS011;2825;53.116;9.392;2022-08-23T08:14:06;14.67;;;2.40;;
5606;SDS011;2825;53.116;9.392;2022-08-23T08:16:42;14.70;;;2.80;;
5606;SDS011;2825;53.116;9.392;2022-08-23T08:19:12;14.07;;;1.77;;
5606;SDS011;2825;53.116;9.392;2022-08-23T08:21:40;16.17;;;2.40;;
5606;SDS011;2825;53.116;9.392;2022-08-23T08:24:09;14.00;;;1.80;;
5606;SDS011;2825;53.116;9.392;2022-08-23T08:26:37;15.20;;;2.37;;
5606;SDS011;2825;53.116;9.392;2022-08-23T08:29:03;16.17;;;2.70;;
5606;SDS011;2825;53.116;9.392;2022-08-23T08:31:30;15.23;;;2.23;;
5606;SDS011;2825;53.116;9.392;2022-08-23T08:33:56;15.40;;;2.40;;
5606;SDS011;2825;53.116;9.392;2022-08-23T08:36:30;14.47;;;2.00;;
5606;SDS011;2825;53.116;9.392;2022-08-23T08:39:02;16.60;;;2.73;;
5606;SDS011;2825;53.116;9.392;2022-08-23T08:53:04;15.30;;;2.23;;
5606;SDS011;2825;53.116;9.392;2022-08-23T08:55:40;17.47;;;2.10;;
5606;SDS011;2825;53.116;9.392;2022-08-23T08:58:15;18.20;;;2.30;;
5606;SDS011;2825;53.116;9.392;2022-08-23T09:00:49;14.70;;;1.70;;
5606;SDS011;2825;53.116;9.392;2022-08-23T09:03:16;16.90;;;1.93;;
5606;SDS011;2825;53.116;9.392;2022-08-23T09:05:47;17.53;;;1.90;;
5606;SDS011;2825;53.116;9.392;2022-08-23T09:19:16;15.20;;;1.60;;
5606;SDS011;2825;53.116;9.392;2022-08-23T09:21:48;14.50;;;1.40;;
5606;SDS011;2825;53.116;9.392;2022-08-23T09:24:26;14.90;;;1.57;;
5606;SDS011;2825;53.116;9.392;2022-08-23T09:26:53;18.43;;;1.70;;
5606;SDS011;2825;53.116;9.392;2022-08-23T09:31:52;14.60;;;1.40;;
5606;SDS011;2825;53.116;9.392;2022-08-23T09:34:36;14.70;;;1.13;;
5606;SDS011;2825;53.116;9.392;2022-08-23T09:39:42;16.50;;;1.67;;
5606;SDS011;2825;53.116;9.392;2022-08-23T09:42:32;15.87;;;1.43;;
5606;SDS011;2825;53.116;9.392;2022-08-23T09:45:05;15.63;;;1.60;;
5606;SDS011;2825;53.116;9.392;2022-08-23T09:47:51;14.90;;;1.50;;
5606;SDS011;2825;53.116;9.392;2022-08-23T09:50:24;17.00;;;1.60;;
5606;SDS011;2825;53.116;9.392;2022-08-23T09:52:55;14.87;;;1.50;;
5606;SDS011;2825;53.116;9.392;2022-08-23T09:55:36;16.50;;;1.52;;
5606;SDS011;2825;53.116;9.392;2022-08-23T09:58:16;15.40;;;1.50;;
5606;SDS011;2825;53.116;9.392;2022-08-23T10:04:07;15.90;;;1.93;;
5606;SDS011;2825;53.116;9.392;2022-08-23T10:06:48;16.23;;;1.47;;
5606;SDS011;2825;53.116;9.392;2022-08-23T10:09:24;17.63;;;2.43;;
5606;SDS011;2825;53.116;9.392;2022-08-23T10:11:56;17.60;;;2.13;;
5606;SDS011;2825;53.116;9.392;2022-08-23T10:14:25;15.47;;;1.33;;
5606;SDS011;2825;53.116;9.392;2022-08-23T10:21:54;15.57;;;1.40;;
5606;SDS011;2825;53.116;9.392;2022-08-23T10:24:29;16.30;;;1.70;;
5606;SDS011;2825;53.116;9.392;2022-08-23T10:27:06;15.30;;;1.30;;
5606;SDS011;2825;53.116;9.392;2022-08-23T10:30:11;14.97;;;1.47;;
5606;SDS011;2825;53.116;9.392;2022-08-23T10:35:29;15.30;;;1.27;;
5606;SDS011;2825;53.116;9.392;2022-08-23T10:38:16;15.70;;;1.30;;
5606;SDS011;2825;53.116;9.392;2022-08-23T10:41:00;15.87;;;1.70;;
5606;SDS011;2825;53.116;9.392;2022-08-23T10:46:41;15.40;;;1.43;;
5606;SDS011;2825;53.116;9.392;2022-08-23T10:49:15;16.90;;;1.60;;
5606;SDS011;2825;53.116;9.392;2022-08-23T10:51:41;16.90;;;1.50;;
5606;SDS011;2825;53.116;9.392;2022-08-23T10:56:42;15.57;;;1.67;;
5606;SDS011;2825;53.116;9.392;2022-08-23T10:59:12;14.83;;;1.20;;
5606;SDS011;2825;53.116;9.392;2022-08-23T11:07:20;15.17;;;1.40;;
5606;SDS011;2825;53.116;9.392;2022-08-23T11:10:07;16.53;;;1.43;;
5606;SDS011;2825;53.116;9.392;2022-08-23T11:12:54;16.47;;;1.60;;
5606;SDS011;2825;53.116;9.392;2022-08-23T11:15:31;16.60;;;1.40;;
5606;SDS011;2825;53.116;9.392;2022-08-23T11:18:53;15.73;;;1.37;;
5606;SDS011;2825;53.116;9.392;2022-08-23T11:34:28;15.30;;;1.33;;
5606;SDS011;2825;53.116;9.392;2022-08-23T11:48:03;16.07;;;1.30;;
5606;SDS011;2825;53.116;9.392;2022-08-23T12:02:25;15.60;;;1.30;;
5606;SDS011;2825;53.116;9.392;2022-08-23T12:18:37;15.33;;;1.10;;
5606;SDS011;2825;53.116;9.392;2022-08-23T12:24:22;15.63;;;1.40;;
5606;SDS011;2825;53.116;9.392;2022-08-23T12:29:26;16.80;;;1.40;;
5606;SDS011;2825;53.116;9.392;2022-08-23T12:32:08;15.57;;;0.93;;
5606;SDS011;2825;53.116;9.392;2022-08-23T12:37:58;16.40;;;1.70;;
5606;SDS011;2825;53.116;9.392;2022-08-23T12:43:07;17.20;;;1.63;;
5606;SDS011;2825;53.116;9.392;2022-08-23T12:45:51;16.37;;;1.50;;
5606;SDS011;2825;53.116;9.392;2022-08-23T12:48:26;16.50;;;1.20;;
5606;SDS011;2825;53.116;9.392;2022-08-23T12:50:58;16.77;;;1.50;;
5606;SDS011;2825;53.116;9.392;2022-08-23T12:53:27;17.60;;;1.30;;
5606;SDS011;2825;53.116;9.392;2022-08-23T12:56:00;16.20;;;1.07;;
5606;SDS011;2825;53.116;9.392;2022-08-23T12:58:29;16.83;;;1.33;;
5606;SDS011;2825;53.116;9.392;2022-08-23T13:01:04;17.67;;;1.63;;
5606;SDS011;2825;53.116;9.392;2022-08-23T13:03:36;17.50;;;1.47;;
5606;SDS011;2825;53.116;9.392;2022-08-23T13:06:06;19.93;;;2.40;;
5606;SDS011;2825;53.116;9.392;2022-08-23T13:11:04;18.43;;;1.97;;
5606;SDS011;2825;53.116;9.392;2022-08-23T13:13:32;17.00;;;1.40;;
5606;SDS011;2825;53.116;9.392;2022-08-23T13:16:00;17.17;;;1.30;;
5606;SDS011;2825;53.116;9.392;2022-08-23T13:18:31;19.20;;;1.57;;
5606;SDS011;2825;53.116;9.392;2022-08-23T13:23:48;21.60;;;1.93;;
5606;SDS011;2825;53.116;9.392;2022-08-23T13:26:28;16.20;;;1.47;;
5606;SDS011;2825;53.116;9.392;2022-08-23T13:29:01;16.90;;;1.40;;
5606;SDS011;2825;53.116;9.392;2022-08-23T13:37:18;19.17;;;1.90;;
5606;SDS011;2825;53.116;9.392;2022-08-23T13:39:55;16.40;;;1.37;;
5606;SDS011;2825;53.116;9.392;2022-08-23T13:42:24;17.37;;;1.33;;
5606;SDS011;2825;53.116;9.392;2022-08-23T13:44:53;17.47;;;1.57;;
5606;SDS011;2825;53.116;9.392;2022-08-23T13:47:23;17.30;;;1.10;;
5606;SDS011;2825;53.116;9.392;2022-08-23T13:49:50;17.97;;;1.37;;
5606;SDS011;2825;53.116;9.392;2022-08-23T13:52:18;16.73;;;1.50;;
5606;SDS011;2825;53.116;9.392;2022-08-23T13:54:43;17.50;;;1.80;;
5606;SDS011;2825;53.116;9.392;2022-08-23T13:57:13;17.20;;;1.10;;
5606;SDS011;2825;53.116;9.392;2022-08-23T13:59:46;17.97;;;1.70;;
5606;SDS011;2825;53.116;9.392;2022-08-23T14:02:15;17.10;;;0.93;;
5606;SDS011;2825;53.116;9.392;2022-08-23T14:04:43;16.87;;;1.37;;
5606;SDS011;2825;53.116;9.392;2022-08-23T14:07:09;17.20;;;1.33;;
5606;SDS011;2825;53.116;9.392;2022-08-23T14:09:35;17.30;;;1.40;;
5606;SDS011;2825;53.116;9.392;2022-08-23T14:12:03;18.37;;;1.50;;
5606;SDS011;2825;53.116;9.392;2022-08-23T14:14:37;17.23;;;1.40;;
5606;SDS011;2825;53.116;9.392;2022-08-23T14:17:04;17.90;;;1.63;;
5606;SDS011;2825;53.116;9.392;2022-08-23T14:19:30;17.27;;;1.60;;
5606;SDS011;2825;53.116;9.392;2022-08-23T14:21:56;17.93;;;1.57;;
5606;SDS011;2825;53.116;9.392;2022-08-23T14:24:23;17.30;;;1.70;;
5606;SDS011;2825;53.116;9.392;2022-08-23T14:26:49;17.77;;;1.53;;
5606;SDS011;2825;53.116;9.392;2022-08-23T14:29:15;17.50;;;1.70;;
5606;SDS011;2825;53.116;9.392;2022-08-23T14:31:41;20.23;;;1.50;;
5606;SDS011;2825;53.116;9.392;2022-08-23T14:34:06;18.70;;;1.30;;
5606;SDS011;2825;53.116;9.392;2022-08-23T14:36:32;19.90;;;1.43;;
5606;SDS011;2825;53.116;9.392;2022-08-23T14:38:58;22.47;;;2.40;;
5606;SDS011;2825;53.116;9.392;2022-08-23T14:41:24;18.40;;;1.43;;
5606;SDS011;2825;53.116;9.392;2022-08-23T14:43:51;17.43;;;1.40;;
5606;SDS011;2825;53.116;9.392;2022-08-23T14:46:18;16.63;;;1.07;;
5606;SDS011;2825;53.116;9.392;2022-08-23T14:48:45;16.87;;;1.40;;
5606;SDS011;2825;53.116;9.392;2022-08-23T14:53:56;17.07;;;1.33;;
5606;SDS011;2825;53.116;9.392;2022-08-23T14:56:22;20.50;;;1.47;;
5606;SDS011;2825;53.116;9.392;2022-08-23T14:58:48;17.00;;;1.60;;
5606;SDS011;2825;53.116;9.392;2022-08-23T15:01:15;17.10;;;1.50;;
5606;SDS011;2825;53.116;9.392;2022-08-23T15:03:42;17.10;;;1.30;;
5606;SDS011;2825;53.116;9.392;2022-08-23T15:06:08;17.40;;;1.60;;
5606;SDS011;2825;53.116;9.392;2022-08-23T15:08:35;16.60;;;1.27;;
5606;SDS011;2825;53.116;9.392;2022-08-23T15:11:01;16.83;;;1.50;;
5606;SDS011;2825;53.116;9.392;2022-08-23T15:13:28;16.90;;;1.27;;
5606;SDS011;2825;53.116;9.392;2022-08-23T15:15:54;17.13;;;1.30;;
5606;SDS011;2825;53.116;9.392;2022-08-23T15:18:20;17.50;;;1.37;;
5606;SDS011;2825;53.116;9.392;2022-08-23T15:20:46;17.37;;;1.13;;
5606;SDS011;2825;53.116;9.392;2022-08-23T15:23:12;16.23;;;1.10;;
5606;SDS011;2825;53.116;9.392;2022-08-23T15:25:39;17.80;;;1.43;;
5606;SDS011;2825;53.116;9.392;2022-08-23T15:28:07;18.10;;;1.70;;
5606;SDS011;2825;53.116;9.392;2022-08-23T15:30:34;16.30;;;1.33;;
5606;SDS011;2825;53.116;9.392;2022-08-23T15:32:59;17.80;;;1.53;;
5606;SDS011;2825;53.116;9.392;2022-08-23T15:35:26;19.80;;;1.80;;
5606;SDS011;2825;53.116;9.392;2022-08-23T15:37:52;17.37;;;1.50;;
5606;SDS011;2825;53.116;9.392;2022-08-23T15:40:20;16.73;;;1.60;;
5606;SDS011;2825;53.116;9.392;2022-08-23T15:42:46;17.30;;;1.70;;
5606;SDS011;2825;53.116;9.392;2022-08-23T15:45:12;18.73;;;1.33;;
5606;SDS011;2825;53.116;9.392;2022-08-23T15:47:45;17.27;;;1.37;;
5606;SDS011;2825;53.116;9.392;2022-08-23T15:50:15;20.00;;;1.30;;
5606;SDS011;2825;53.116;9.392;2022-08-23T15:52:41;16.37;;;1.30;;
5606;SDS011;2825;53.116;9.392;2022-08-23T15:55:07;17.33;;;1.57;;
5606;SDS011;2825;53.116;9.392;2022-08-23T15:57:38;17.37;;;1.53;;
5606;SDS011;2825;53.116;9.392;2022-08-23T16:00:08;16.63;;;1.23;;
5606;SDS011;2825;53.116;9.392;2022-08-23T16:02:37;17.93;;;1.30;;
5606;SDS011;2825;53.116;9.392;2022-08-23T16:05:03;17.17;;;1.73;;
5606;SDS011;2825;53.116;9.392;2022-08-23T16:07:29;17.57;;;1.30;;
5606;SDS011;2825;53.116;9.392;2022-08-23T16:09:56;17.50;;;1.30;;
5606;SDS011;2825;53.116;9.392;2022-08-23T16:12:24;17.20;;;1.60;;
5606;SDS011;2825;53.116;9.392;2022-08-23T16:14:50;16.10;;;1.57;;
5606;SDS011;2825;53.116;9.392;2022-08-23T16:17:16;17.37;;;2.00;;
5606;SDS011;2825;53.116;9.392;2022-08-23T16:19:44;18.60;;;1.40;;
5606;SDS011;2825;53.116;9.392;2022-08-23T16:22:10;16.57;;;1.67;;
5606;SDS011;2825;53.116;9.392;2022-08-23T16:24:35;19.80;;;1.37;;
5606;SDS011;2825;53.116;9.392;2022-08-23T16:27:02;16.47;;;1.50;;
5606;SDS011;2825;53.116;9.392;2022-08-23T16:29:29;17.43;;;1.80;;
5606;SDS011;2825;53.116;9.392;2022-08-23T16:31:55;17.00;;;1.50;;
5606;SDS011;2825;53.116;9.392;2022-08-23T16:34:21;16.30;;;1.30;;
5606;SDS011;2825;53.116;9.392;2022-08-23T16:36:56;17.00;;;1.47;;
5606;SDS011;2825;53.116;9.392;2022-08-23T16:39:24;15.97;;;1.60;;
5606;SDS011;2825;53.116;9.392;2022-08-23T16:41:50;16.10;;;1.20;;
5606;SDS011;2825;53.116;9.392;2022-08-23T16:44:16;16.17;;;1.30;;
5606;SDS011;2825;53.116;9.392;2022-08-23T16:46:41;16.10;;;1.80;;
5606;SDS011;2825;53.116;9.392;2022-08-23T16:49:11;16.63;;;1.47;;
5606;SDS011;2825;53.116;9.392;2022-08-23T16:51:38;16.53;;;1.40;;
5606;SDS011;2825;53.116;9.392;2022-08-23T16:54:04;18.50;;;1.40;;
5606;SDS011;2825;53.116;9.392;2022-08-23T16:56:33;16.67;;;1.70;;
5606;SDS011;2825;53.116;9.392;2022-08-23T16:59:00;16.00;;;1.40;;
5606;SDS011;2825;53.116;9.392;2022-08-23T17:01:27;16.40;;;1.23;;
5606;SDS011;2825;53.116;9.392;2022-08-23T17:03:53;16.07;;;1.63;;
5606;SDS011;2825;53.116;9.392;2022-08-23T17:06:19;16.80;;;1.43;;
5606;SDS011;2825;53.116;9.392;2022-08-23T17:08:45;16.63;;;2.00;;
5606;SDS011;2825;53.116;9.392;2022-08-23T17:11:13;16.00;;;1.40;;
5606;SDS011;2825;53.116;9.392;2022-08-23T17:13:41;16.33;;;2.20;;
5606;SDS011;2825;53.116;9.392;2022-08-23T17:16:07;16.03;;;1.47;;
5606;SDS011;2825;53.116;9.392;2022-08-23T17:18:34;17.07;;;1.53;;
5606;SDS011;2825;53.116;9.392;2022-08-23T17:21:01;17.10;;;1.43;;
5606;SDS011;2825;53.116;9.392;2022-08-23T17:23:27;16.87;;;1.30;;
5606;SDS011;2825;53.116;9.392;2022-08-23T17:25:52;17.90;;;2.23;;
5606;SDS011;2825;53.116;9.392;2022-08-23T17:28:18;17.33;;;1.40;;